Time;durP1;ratioP1;P1;durP2;ratioP2;P2;SDS_P1;SDS_P2;PMS_P1;PMS_P2;Temp;Humidity;BMP_temperature;BMP_pressure;BME280_temperature;BME280_humidity;BME280_pressure;Samples;Min_cycle;Max_cycle;Signal;HPM_P1;HPM_P2
2023/11/03 00:01:31;;;;;;;4.17;3.10;;;10.60;99.90;;;-141.84;100.00;48108.81;4983110;28;20338;-61
2023/11/03 00:04:01;;;;;;;2.67;2.40;;;10.70;99.90;;;-141.84;100.00;45751.28;4982294;28;20866;-61
2023/11/03 00:06:30;;;;;;;2.60;2.40;;;10.80;99.90;;;-141.84;100.00;51778.88;4981676;28;20216;-63
2023/11/03 00:09:00;;;;;;;2.97;2.50;;;10.70;99.90;;;-141.84;100.00;50729.94;4972884;28;20230;-62
2023/11/03 00:11:28;;;;;;;2.93;2.30;;;10.80;99.90;;;-141.84;100.00;49943.41;4982432;28;20746;-61
2023/11/03 00:13:56;;;;;;;2.57;2.37;;;10.80;99.90;;;-141.84;100.00;49943.41;4980856;28;20249;-62
2023/11/03 00:16:24;;;;;;;3.57;2.30;;;10.80;99.90;;;-141.84;100.00;35037.41;4974800;28;20255;-62
2023/11/03 00:18:57;;;;;;;2.33;2.00;;;10.90;99.90;;;-141.84;100.00;48632.88;4982799;28;20699;-62
2023/11/03 00:21:26;;;;;;;3.30;2.57;;;10.80;99.90;;;-141.84;100.00;55452.34;4985951;28;20702;-62
2023/11/03 00:23:55;;;;;;;3.15;2.40;;;10.70;99.90;;;-141.84;100.00;60180.38;4982246;28;20243;-61
2023/11/03 00:26:25;;;;;;;2.70;2.30;;;10.70;99.90;;;-141.84;100.00;68336.31;4982716;28;20242;-62
2023/11/03 00:28:53;;;;;;;2.60;2.30;;;10.60;99.90;;;-141.84;100.00;68599.69;4982467;28;20319;-62
2023/11/03 00:31:22;;;;;;;2.40;2.20;;;10.60;99.90;;;-141.84;100.00;70180.31;4977992;28;20606;-62
2023/11/03 00:33:51;;;;;;;2.93;2.50;;;10.50;99.90;;;-141.84;100.00;64124.72;4983353;28;20214;-62
2023/11/03 00:36:19;;;;;;;3.07;2.20;;;10.60;99.90;;;-141.84;100.00;69653.38;4985914;28;20675;-61
2023/11/03 00:38:47;;;;;;;2.33;2.13;;;10.50;99.90;;;-141.84;100.00;70443.78;4985869;28;20322;-61
2023/11/03 00:41:16;;;;;;;2.50;2.30;;;10.50;99.90;;;-141.84;100.00;65966.75;4978030;28;20308;-61
2023/11/03 00:43:46;;;;;;;2.40;2.20;;;10.50;99.90;;;-141.84;100.00;64650.94;4965792;28;20240;-62
2023/11/03 00:46:15;;;;;;;2.60;2.40;;;10.50;99.90;;;-141.84;100.00;74925.88;4983656;28;20309;-62
2023/11/03 00:48:43;;;;;;;2.20;2.03;;;10.40;99.90;;;-141.84;100.00;80469.50;4981129;28;20742;-62
2023/11/03 00:51:12;;;;;;;2.37;2.10;;;10.30;99.90;;;-141.84;100.00;81790.53;4978516;28;20753;-61
2023/11/03 00:53:40;;;;;;;2.13;2.00;;;10.30;99.90;;;-141.84;100.00;81262.06;4985517;28;20238;-61
2023/11/03 00:56:09;;;;;;;2.60;2.13;;;10.30;99.90;;;-141.84;100.00;80997.84;4985706;28;20235;-62
2023/11/03 00:58:37;;;;;;;3.25;2.20;;;10.30;99.90;;;-141.84;100.00;83376.34;4985082;28;20237;-63
2023/11/03 01:01:13;;;;;;;2.37;2.17;;;10.20;99.90;;;-141.84;100.00;85227.25;4978488;28;20242;-62
2023/11/03 01:03:41;;;;;;;3.20;2.10;;;10.20;99.90;;;-141.84;100.00;86020.75;4985700;28;20297;-63
2023/11/03 01:06:10;;;;;;;2.73;2.30;;;10.20;99.90;;;-141.84;100.00;74398.31;4985665;28;20215;-62
2023/11/03 01:08:38;;;;;;;2.30;2.10;;;10.20;99.90;;;-141.84;100.00;75189.69;4985448;28;20972;-62
2023/11/03 01:11:09;;;;;;;2.60;2.27;;;10.20;99.90;;;-141.84;100.00;82583.34;4977915;28;20663;-63
2023/11/03 01:13:37;;;;;;;2.90;2.17;;;10.20;99.90;;;-141.84;100.00;85491.75;4984863;28;20290;-62
2023/11/03 01:16:08;;;;;;;2.13;2.00;;;10.20;99.90;;;-141.84;100.00;79677.06;4985607;28;20314;-62
2023/11/03 01:18:39;;;;;;;2.50;2.30;;;10.20;99.90;;;-141.84;100.00;75189.69;4985955;28;20221;-61
2023/11/03 01:21:12;;;;;;;2.50;2.20;;;10.20;99.90;;;-141.84;100.00;70180.31;4984478;28;20211;-62
2023/11/03 01:23:42;;;;;;;2.30;2.10;;;10.20;99.90;;;-141.84;100.00;74662.09;5004084;28;20264;-61
2023/11/03 01:26:11;;;;;;;2.27;2.07;;;10.30;99.90;;;-141.84;100.00;78356.72;4996994;28;20249;-62
2023/11/03 01:28:39;;;;;;;1.80;1.70;;;10.20;99.90;;;-141.84;100.00;81526.28;4984856;28;20261;-61
2023/11/03 01:31:11;;;;;;;2.73;2.00;;;10.20;99.90;;;-141.84;100.00;81262.06;4977913;28;20238;-62
2023/11/03 01:33:41;;;;;;;2.13;1.80;;;10.20;99.90;;;-141.84;100.00;79412.97;4985663;28;20204;-62
2023/11/03 01:36:10;;;;;;;2.30;2.10;;;10.20;99.90;;;-141.84;100.00;81526.28;4985579;28;20286;-61
2023/11/03 01:38:39;;;;;;;2.87;2.23;;;10.20;99.90;;;-141.84;100.00;81790.53;4984456;28;20235;-61
2023/11/03 01:41:09;;;;;;;2.70;1.97;;;10.20;99.90;;;-141.84;100.00;72288.75;4977682;28;20239;-61
2023/11/03 01:43:37;;;;;;;2.23;2.10;;;10.20;99.90;;;-141.84;100.00;66229.97;4984860;28;20285;-62
2023/11/03 01:46:05;;;;;;;2.40;2.20;;;10.30;99.90;;;-141.84;100.00;63861.66;4984375;28;20293;-62
2023/11/03 01:48:35;;;;;;;2.60;2.40;;;10.30;99.90;;;-141.84;100.00;59917.56;4980553;28;20254;-61
2023/11/03 01:51:05;;;;;;;3.10;2.30;;;10.30;99.90;;;-141.84;100.00;55189.84;4976727;28;20714;-62
2023/11/03 01:53:33;;;;;;;2.60;2.33;;;10.40;99.90;;;-141.84;100.00;40498.97;4984422;28;20303;-62
2023/11/03 01:56:01;;;;;;;2.80;2.50;;;10.40;99.90;;;-141.84;100.00;33680.84;4984963;28;20285;-61
2023/11/03 01:58:30;;;;;;;3.40;2.30;;;10.50;99.90;;;-141.84;99.22;28746.13;4982413;28;20715;-62
2023/11/03 02:00:58;;;;;;;3.50;2.27;;;10.60;99.90;;;-141.84;99.57;30007.22;4977074;28;20802;-62
2023/11/03 02:03:27;;;;;;;2.40;2.20;;;10.50;99.90;;;-141.84;97.91;26538.63;4985056;28;20211;-62
2023/11/03 02:05:57;;;;;;;2.70;2.30;;;10.60;99.90;;;-141.84;98.62;26499.94;4984499;28;20293;-61
2023/11/03 02:08:25;;;;;;;2.10;1.90;;;10.50;99.90;;;-141.84;100.00;35910.75;4984787;28;20309;-61
2023/11/03 02:10:53;;;;;;;3.23;2.13;;;10.50;99.90;;;-141.84;98.62;27611.66;4984241;28;20656;-61
2023/11/03 02:13:21;;;;;;;2.57;2.07;;;10.50;99.90;;;-141.84;99.65;29925.72;4979362;28;20419;-62
2023/11/03 02:15:50;;;;;;;2.13;1.93;;;10.50;99.90;;;-141.84;100.00;42871.75;4980081;28;20837;-62
2023/11/03 02:18:18;;;;;;;2.40;2.20;;;10.40;99.90;;;-141.84;100.00;50729.94;4984852;28;20223;-61
2023/11/03 02:20:47;;;;;;;2.37;1.87;;;10.30;99.90;;;-141.84;100.00;46275.03;4985293;28;20226;-62
2023/11/03 02:23:16;;;;;;;2.67;2.20;;;10.30;99.90;;;-141.84;99.79;30916.13;4976614;28;20365;-62
2023/11/03 02:25:44;;;;;;;1.93;1.83;;;10.40;99.90;;;-141.84;100.00;33352.47;4983358;28;20268;-61
2023/11/03 02:28:12;;;;;;;3.47;2.60;;;10.40;99.90;;;-141.84;100.00;36094.41;4983816;28;20231;-62
2023/11/03 02:30:41;;;;;;;3.20;2.10;;;10.40;99.90;;;-141.84;100.00;36800.59;4983700;28;20207;-63
2023/11/03 02:33:09;;;;;;;2.47;2.23;;;10.30;99.90;;;-141.84;100.00;37945.88;4977020;28;20222;-61
2023/11/03 02:35:37;;;;;;;2.50;2.27;;;10.30;99.90;;;-141.84;96.62;23254.09;4983932;28;20234;-61
2023/11/03 02:38:06;;;;;;;3.80;2.30;;;10.40;99.90;;;-141.84;97.41;24114.66;4983700;28;20263;-62
2023/11/03 02:40:35;;;;;;;2.10;2.00;;;10.40;99.90;;;-141.84;96.98;23555.19;4984093;28;20257;-61
2023/11/03 02:43:03;;;;;;;3.10;2.10;;;10.30;99.90;;;-141.84;97.16;23241.91;4975759;28;20298;-62
2023/11/03 02:45:32;;;;;;;2.40;2.17;;;10.40;99.90;;;-141.84;96.46;22865.59;4984208;28;20211;-61
2023/11/03 02:48:00;;;;;;;2.67;1.90;;;10.40;99.90;;;-141.84;96.86;22924.59;4983887;28;20277;-62
2023/11/03 02:50:28;;;;;;;2.20;1.80;;;10.30;99.90;;;-141.84;96.08;21960.59;4983909;28;20227;-60
2023/11/03 02:52:56;;;;;;;2.57;1.70;;;10.30;99.90;;;-141.84;91.78;20000.81;4981308;28;20318;-61
2023/11/03 02:55:25;;;;;;;2.80;1.70;;;10.50;99.90;;;-141.84;91.26;19799.63;4979922;28;20227;-61
2023/11/03 02:57:55;;;;;;;5.50;1.83;;;10.40;99.90;;;-141.84;91.41;19785.38;4983080;28;20495;-61
2023/11/03 03:00:24;;;;;;;5.00;2.10;;;10.40;99.90;;;-141.84;91.47;19846.34;4983815;28;20238;-61
2023/11/03 03:02:52;;;;;;;3.10;1.60;;;10.40;99.90;;;-141.84;92.76;20118.69;4983361;28;20267;-62
2023/11/03 03:05:21;;;;;;;4.13;1.70;;;10.30;99.90;;;-141.84;90.76;19763.03;4977646;28;20227;-62
2023/11/03 03:07:49;;;;;;;3.33;1.80;;;10.30;99.90;;;-141.84;92.53;20059.75;4983837;28;20262;-62
2023/11/03 03:10:17;;;;;;;4.87;1.60;;;10.20;99.90;;;-141.84;89.49;19561.84;4983193;28;20298;-61
2023/11/03 03:12:47;;;;;;;3.07;1.83;;;10.30;99.90;;;-141.84;93.02;20063.81;4983460;28;20257;-62
2023/11/03 03:15:16;;;;;;;4.43;1.80;;;10.20;99.90;;;-141.84;91.67;19791.47;4976222;28;20239;-62
2023/11/03 03:17:44;;;;;;;3.70;1.50;;;10.10;99.90;;;-141.84;92.49;19925.63;4983072;28;20710;-61
2023/11/03 03:20:12;;;;;;;3.07;1.73;;;10.10;99.90;;;-141.84;88.45;19484.59;4963780;28;20235;-62
2023/11/03 03:22:41;;;;;;;3.10;1.43;;;10.10;99.90;;;-141.84;89.28;19525.25;4964345;28;20282;-61
2023/11/03 03:25:09;;;;;;;3.40;1.90;;;10.10;99.90;;;-141.84;86.50;19366.75;4957678;28;20318;-62
2023/11/03 03:27:37;;;;;;;3.23;1.70;;;10.30;99.90;;;-141.84;88.31;19460.22;4966202;28;20226;-62
2023/11/03 03:30:08;;;;;;;3.83;1.30;;;10.20;99.90;;;-141.84;89.29;19500.88;4946128;28;20684;-63
2023/11/03 03:32:37;;;;;;;3.33;1.60;;;10.10;99.90;;;-141.84;89.06;19480.53;4961489;28;20231;-62
2023/11/03 03:35:07;;;;;;;2.87;1.70;;;10.20;99.90;;;-141.84;90.48;19649.22;4958165;28;20236;-62
2023/11/03 03:37:36;;;;;;;2.60;1.30;;;10.10;99.90;;;-141.84;89.50;19525.25;4965487;28;20239;-62
2023/11/03 03:40:05;;;;;;;2.23;1.33;;;10.10;99.90;;;-141.84;92.21;19862.63;4964727;28;20258;-61
2023/11/03 03:42:34;;;;;;;3.10;1.93;;;10.00;99.90;;;-141.84;94.07;20328.06;4974956;28;20551;-63
2023/11/03 03:45:02;;;;;;;2.53;1.60;;;9.90;99.90;;;-141.84;94.18;20358.56;4977969;28;20294;-63
2023/11/03 03:47:31;;;;;;;3.20;1.63;;;9.90;99.90;;;-141.84;95.20;20801.69;4984582;28;20735;-62
2023/11/03 03:50:00;;;;;;;4.40;1.80;;;9.80;99.90;;;-141.84;96.07;21488.88;4984824;28;20231;-61
2023/11/03 03:52:28;;;;;;;2.70;1.40;;;9.70;99.90;;;-141.84;94.17;20366.69;4984505;28;20314;-62
2023/11/03 03:54:57;;;;;;;3.43;1.70;;;9.80;99.90;;;-141.84;94.04;20452.06;4982391;28;20261;-62
2023/11/03 03:57:26;;;;;;;2.23;1.63;;;9.50;99.90;;;-141.84;94.60;20452.06;4984871;28;20208;-61
2023/11/03 03:59:54;;;;;;;3.80;1.50;;;9.70;99.90;;;-141.84;95.59;21102.56;4983824;28;20330;-61
2023/11/03 04:02:22;;;;;;;3.13;1.60;;;9.60;99.90;;;-141.84;97.44;22627.63;4984514;28;20231;-62
2023/11/03 04:04:51;;;;;;;4.20;1.80;;;9.60;99.90;;;-141.84;97.39;23150.38;4984665;28;20305;-61
2023/11/03 04:07:20;;;;;;;2.40;1.50;;;9.50;99.90;;;-141.84;96.57;21915.88;4978207;28;20235;-61
2023/11/03 04:09:48;;;;;;;3.23;1.87;;;9.50;99.90;;;-141.84;97.60;23221.56;4988106;28;20208;-63
2023/11/03 04:12:17;;;;;;;4.63;1.90;;;9.50;99.90;;;-141.84;96.49;22135.47;4988431;28;20219;-62
2023/11/03 04:14:45;;;;;;;4.13;1.80;;;9.50;99.90;;;-141.84;95.81;21340.44;4988247;28;20253;-61
2023/11/03 04:17:13;;;;;;;8.80;1.93;;;9.50;99.90;;;-141.84;94.84;20722.41;4981497;28;20231;-62
2023/11/03 04:19:41;;;;;;;4.43;1.90;;;9.60;99.90;;;-141.84;94.24;20419.53;4988238;28;20233;-62
2023/11/03 04:22:10;;;;;;;2.93;1.57;;;9.60;99.90;;;-141.84;95.35;21289.59;5003569;28;20789;-62
2023/11/03 04:24:39;;;;;;;3.67;1.73;;;9.50;99.90;;;-141.84;91.85;19824.00;5008191;28;20206;-61
2023/11/03 04:27:08;;;;;;;1.67;1.20;;;9.60;99.90;;;-141.84;94.42;20519.13;5001193;28;20258;-62
2023/11/03 04:29:36;;;;;;;2.43;1.60;;;9.60;99.90;;;-141.84;96.22;21509.19;5006886;28;20723;-62
2023/11/03 04:32:04;;;;;;;3.57;1.37;;;9.60;99.90;;;-141.84;98.19;23868.47;5007257;28;20333;-61
2023/11/03 04:34:33;;;;;;;3.97;1.30;;;9.50;99.90;;;-141.84;98.84;25235.88;5007288;28;20230;-61
2023/11/03 04:37:01;;;;;;;5.13;1.70;;;9.50;99.90;;;-141.84;97.12;22949.00;5000136;28;20266;-62
2023/11/03 04:39:29;;;;;;;2.47;1.50;;;9.50;99.90;;;-141.84;96.49;22088.72;5008134;28;20218;-61
2023/11/03 04:41:59;;;;;;;2.73;1.50;;;9.50;99.90;;;-141.84;96.60;22363.25;5002024;28;20261;-62
2023/11/03 04:44:27;;;;;;;4.77;1.93;;;9.50;99.90;;;-141.84;94.93;21053.78;4987696;28;20294;-62
2023/11/03 04:46:55;;;;;;;3.97;1.80;;;9.50;99.90;;;-141.84;95.83;21285.53;4987652;28;20909;-61
2023/11/03 04:49:23;;;;;;;3.13;1.83;;;9.50;99.90;;;-141.84;97.23;22845.25;4985920;28;20653;-62
2023/11/03 04:51:52;;;;;;;2.60;1.60;;;9.40;99.90;;;-141.84;95.47;21027.34;4986880;28;20214;-62
2023/11/03 04:54:20;;;;;;;2.93;1.60;;;9.50;99.90;;;-141.84;97.30;22692.72;4987787;28;20227;-62
2023/11/03 04:56:48;;;;;;;4.33;1.70;;;9.50;99.90;;;-141.84;98.96;25630.72;4986969;28;20258;-62
2023/11/03 04:59:17;;;;;;;3.83;1.40;;;9.40;99.90;;;-141.84;96.38;21852.81;4980240;28;20330;-62
2023/11/03 05:01:47;;;;;;;5.60;2.10;;;9.40;99.90;;;-141.84;96.03;21637.28;4985541;28;20809;-61
2023/11/03 05:04:16;;;;;;;3.00;1.70;;;9.40;99.90;;;-141.84;96.59;22094.81;4985989;28;20223;-62
2023/11/03 05:06:45;;;;;;;3.37;1.67;;;9.30;99.90;;;-141.84;94.72;20561.81;4986846;28;20226;-62
2023/11/03 05:09:13;;;;;;;6.20;2.83;;;9.30;99.90;;;-141.84;93.92;20352.44;4980824;28;20238;-64
2023/11/03 05:11:42;;;;;;;3.90;1.50;;;9.30;99.90;;;-141.84;94.49;20472.38;4986743;28;20234;-62
2023/11/03 05:14:11;;;;;;;4.00;1.73;;;9.30;99.90;;;-141.84;93.54;20234.56;4986653;28;20302;-61
2023/11/03 05:16:41;;;;;;;3.23;1.57;;;9.20;99.90;;;-141.84;91.00;19643.13;4986644;28;20765;-62
2023/11/03 05:19:09;;;;;;;3.23;1.50;;;9.30;99.90;;;-141.84;93.72;20061.78;4979579;28;20234;-62
2023/11/03 05:21:37;;;;;;;6.63;1.67;;;9.20;99.90;;;-141.84;95.40;20752.91;4998870;28;20217;-62
2023/11/03 05:24:07;;;;;;;1.67;1.50;;;9.20;99.90;;;-141.84;96.21;21490.91;5006570;28;20285;-62
2023/11/03 05:26:36;;;;;;;4.93;1.50;;;9.10;99.90;;;-141.84;90.43;19574.03;4990752;28;20333;-62
2023/11/03 05:29:04;;;;;;;4.43;1.80;;;9.20;99.90;;;-141.84;90.62;19543.53;4978856;28;20227;-63
2023/11/03 05:31:47;;;;;;;6.30;1.83;;;9.20;99.90;;;-141.84;91.96;19698.00;4986814;28;20913;-62
2023/11/03 05:34:15;;;;;;;2.83;1.60;;;9.10;99.90;;;-141.84;93.91;20094.31;4986111;28;20699;-62
2023/11/03 05:36:43;;;;;;;4.70;1.50;;;9.00;99.90;;;-141.84;96.13;21065.97;4986587;28;20327;-63
2023/11/03 05:39:13;;;;;;;3.70;1.40;;;8.90;99.90;;;-141.84;96.35;21238.78;4979580;28;20211;-62
2023/11/03 05:41:42;;;;;;;2.33;1.37;;;8.90;99.90;;;-141.84;96.79;21828.44;4983096;28;20263;-61
2023/11/03 05:44:10;;;;;;;3.77;1.50;;;8.90;99.90;;;-141.84;96.34;21381.09;4966954;28;20232;-62
2023/11/03 05:46:39;;;;;;;3.13;1.70;;;8.80;99.90;;;-141.84;96.83;21700.31;4967582;28;20282;-62
2023/11/03 05:49:08;;;;;;;3.13;1.43;;;8.80;99.90;;;-141.84;98.88;24816.66;4959721;28;20227;-62
2023/11/03 05:51:38;;;;;;;4.43;1.83;;;8.80;99.90;;;-141.84;98.84;24767.81;4966871;28;20215;-62
2023/11/03 05:54:07;;;;;;;2.53;1.50;;;8.70;99.90;;;-141.84;98.70;25215.53;4982979;28;20302;-62
2023/11/03 05:56:35;;;;;;;5.30;1.77;;;8.70;99.90;;;-141.84;97.96;23020.19;4986433;28;20237;-63
2023/11/03 05:59:03;;;;;;;4.37;1.93;;;8.80;99.90;;;-141.84;98.95;24940.78;4979135;28;20807;-61
2023/11/03 06:01:33;;;;;;;3.27;1.80;;;8.70;99.90;;;-141.84;99.63;26243.41;4979407;28;20266;-62
2023/11/03 06:04:01;;;;;;;5.33;1.90;;;8.70;99.90;;;-141.84;100.00;28966.13;4966993;28;20240;-61
2023/11/03 06:06:31;;;;;;;5.53;1.83;;;8.60;99.90;;;-141.84;100.00;35753.59;4967338;28;20212;-62
2023/11/03 06:09:00;;;;;;;3.83;1.63;;;8.60;99.90;;;-141.84;100.00;33693.06;4959815;28;20349;-62
2023/11/03 06:11:28;;;;;;;3.17;1.70;;;8.60;99.90;;;-141.84;98.87;25160.56;4966418;28;20232;-61
2023/11/03 06:13:56;;;;;;;3.07;1.90;;;8.60;99.90;;;-141.84;100.00;29995.00;4976604;28;20235;-62
2023/11/03 06:16:24;;;;;;;7.07;2.00;;;8.50;99.90;;;-141.84;100.00;32946.66;4985530;28;20310;-62
2023/11/03 06:18:52;;;;;;;4.13;1.87;;;8.50;99.90;;;-141.84;100.00;37588.59;4985549;28;20299;-62
2023/11/03 06:21:21;;;;;;;5.17;1.70;;;8.50;99.90;;;-141.84;100.00;41130.34;4990384;28;20705;-62
2023/11/03 06:23:51;;;;;;;4.23;1.70;;;8.50;99.90;;;-141.84;100.00;50729.94;5004868;28;20230;-62
2023/11/03 06:26:19;;;;;;;4.30;1.70;;;8.50;99.90;;;-141.84;100.00;52303.44;5005402;28;20262;-62
2023/11/03 06:28:47;;;;;;;5.20;2.03;;;8.50;99.90;;;-141.84;100.00;41526.81;5005771;28;20253;-61
2023/11/03 06:31:16;;;;;;;7.67;1.87;;;8.50;99.90;;;-141.84;100.00;43133.44;4997998;28;20274;-61
2023/11/03 06:33:47;;;;;;;4.33;1.90;;;8.50;99.90;;;-141.84;100.00;50729.94;5005861;28;20580;-62
2023/11/03 06:36:17;;;;;;;3.07;1.50;;;8.50;99.90;;;-141.84;100.00;53877.56;5004606;28;20222;-62
2023/11/03 06:38:45;;;;;;;4.17;1.80;;;8.40;99.90;;;-141.84;100.00;58341.03;4995715;28;20231;-62
2023/11/03 06:41:15;;;;;;;5.50;1.73;;;8.40;99.90;;;-141.84;100.00;58866.47;4977769;28;20515;-62
2023/11/03 06:43:43;;;;;;;3.37;1.60;;;8.40;99.90;;;-141.84;100.00;61231.81;4985383;28;20262;-62
2023/11/03 06:46:16;;;;;;;5.60;1.97;;;8.40;99.90;;;-141.84;100.00;52041.16;4985585;28;20306;-62
2023/11/03 06:48:44;;;;;;;4.10;2.00;;;8.40;99.90;;;-141.84;98.73;26791.06;4981674;28;20243;-61
2023/11/03 06:51:13;;;;;;;3.90;2.43;;;8.50;99.90;;;-141.84;100.00;31234.09;4978838;28;20199;-62
2023/11/03 06:53:41;;;;;;;6.83;2.13;;;8.50;99.90;;;-141.84;100.00;31103.66;4985573;28;20274;-62
2023/11/03 06:56:09;;;;;;;5.37;1.97;;;;;;;-141.84;99.18;25610.38;4985572;28;20262;-61
2023/11/03 06:58:39;;;;;;;3.40;1.80;;;;;;;-141.84;98.98;26273.97;4985275;28;20245;-61
2023/11/03 07:01:08;;;;;;;5.07;2.00;;;;;;;-141.84;100.00;29846.25;4978031;28;20804;-62
2023/11/03 07:03:37;;;;;;;2.53;1.60;;;;;;;-141.84;95.80;21492.94;4984933;28;20215;-62
2023/11/03 07:06:08;;;;;;;5.93;2.00;;;;;;;-141.84;97.40;22808.66;4984937;28;20242;-62
2023/11/03 07:08:36;;;;;;;6.97;1.83;;;;;;;-141.84;95.51;21129.00;4985222;28;20263;-60
2023/11/03 07:11:05;;;;;;;4.97;1.53;;;;;;;-141.84;96.35;21375.00;4978321;28;20314;-64
2023/11/03 07:13:33;;;;;;;4.80;1.77;;;;;;;-141.84;98.21;23860.34;4974104;28;20755;-63
2023/11/03 07:16:07;;;;;;;3.97;1.47;;;;;;;-141.84;95.79;21122.91;4984613;28;20237;-63
2023/11/03 07:18:36;;;;;;;4.57;1.80;;;;;;;-141.84;96.77;21783.69;4986072;28;20725;-63
2023/11/03 07:21:10;;;;;;;5.53;1.90;;;;;;;-141.84;97.24;22471.03;4984908;28;20756;-62
2023/11/03 07:23:38;;;;;;;3.43;1.70;;;;;;;-141.84;97.71;22857.47;5003880;28;20706;-63
2023/11/03 07:26:07;;;;;;;2.77;1.73;;;;;;;-141.84;98.20;23860.34;5004575;28;20235;-64
2023/11/03 07:28:38;;;;;;;5.30;2.10;;;;;;;-141.84;97.49;22944.94;5004530;28;20321;-62
2023/11/03 07:31:11;;;;;;;5.00;1.80;;;;;;;-141.84;94.49;20677.69;4997661;28;20230;-63
2023/11/03 07:33:41;;;;;;;3.83;1.67;;;;;;;-141.84;94.22;20484.56;5005187;28;20206;-63
2023/11/03 07:36:10;;;;;;;6.30;2.00;;;;;;;-141.84;93.21;19968.31;4983662;28;20235;-63
2023/11/03 07:38:40;;;;;;;4.17;1.73;;;;;;;-141.84;91.94;19758.97;4984610;28;20227;-64
2023/11/03 07:41:08;;;;;;;6.03;1.60;;;;;;;-141.84;88.20;19368.78;4977963;28;20309;-62
2023/11/03 07:43:39;;;;;;;4.70;1.80;;;;;;;-141.84;87.35;19289.53;4987171;28;20270;-63
2023/11/03 07:46:09;;;;;;;5.73;1.87;;;;;;;-141.84;84.00;19218.41;4989201;28;20249;-62
2023/11/03 07:48:39;;;;;;;4.50;2.00;;;;;;;-141.84;84.16;19226.53;4993764;28;20295;-63
2023/11/03 07:51:08;;;;;;;5.53;1.60;;;;;;;-141.84;82.60;19179.78;4981811;28;20215;-63
2023/11/03 07:53:36;;;;;;;4.27;1.97;;;;;;;-141.84;83.33;19206.22;4988878;28;20329;-64
2023/11/03 07:56:06;;;;;;;4.30;1.57;;;;;;;-141.84;81.82;19187.91;4988406;28;20322;-63
2023/11/03 07:58:35;;;;;;;4.50;1.93;;;;;;;-141.84;81.08;19157.44;4989265;28;20265;-64
2023/11/03 08:01:05;;;;;;;3.60;1.53;;;;;;;-141.84;80.84;19189.97;4980129;28;20262;-64
2023/11/03 08:03:35;;;;;;;5.40;1.93;;;;;;;-141.84;80.70;19187.91;4989332;28;20221;-63
2023/11/03 08:06:06;;;;;;;3.33;1.40;;;;;;;-141.84;78.32;19173.69;4988335;28;20242;-64
2023/11/03 08:08:35;;;;;;;5.03;1.63;;;;;;;-141.84;78.54;19212.31;4984289;28;20239;-63
2023/11/03 08:11:04;;;;;;;3.43;1.60;;;;;;;-141.84;76.05;19181.81;4960660;28;20311;-63
2023/11/03 08:13:33;;;;;;;3.43;1.40;;;;;;;-141.84;75.09;19159.47;4975949;28;20289;-64
2023/11/03 08:16:03;;;;;;;2.77;1.50;;;;;;;-141.84;74.54;19220.44;4984511;28;20249;-64
2023/11/03 08:18:34;;;;;;;5.23;1.80;;;;;;;-141.84;73.13;19165.56;4984375;28;20203;-64
2023/11/03 08:21:03;;;;;;;3.13;1.77;;;;;;;-141.84;74.26;19175.72;4980759;28;20227;-63
2023/11/03 08:23:34;;;;;;;3.97;1.47;;;;;;;-141.84;75.70;19187.91;4987799;28;20267;-63
2023/11/03 08:26:04;;;;;;;4.13;1.70;;;;;;;-141.84;74.70;19171.66;4986368;28;20322;-63
2023/11/03 08:28:33;;;;;;;5.67;1.67;;;;;;;-141.84;75.75;19171.66;4986479;28;20718;-64
2023/11/03 08:31:01;;;;;;;4.23;1.47;;;;;;;-141.84;74.91;19175.72;4978381;28;20235;-64
2023/11/03 08:33:30;;;;;;;5.03;1.43;;;;;;;-141.84;73.48;19204.19;4987407;28;20215;-65
2023/11/03 08:36:00;;;;;;;6.73;1.93;;;;;;;-141.84;74.03;19206.22;4984876;28;20658;-64
2023/11/03 08:38:28;;;;;;;4.87;1.80;;;;;;;-141.84;75.19;19173.69;4985592;28;20326;-64
2023/11/03 08:40:57;;;;;;;2.70;1.23;;;;;;;-141.84;73.67;19198.09;4983047;28;20257;-63
2023/11/03 08:43:25;;;;;;;2.10;1.30;;;;;;;-141.84;75.98;19175.72;4985744;28;20259;-64
2023/11/03 08:45:54;;;;;;;2.73;1.33;;;;;;;-141.84;74.26;19192.00;4985420;28;20211;-64
2023/11/03 08:48:24;;;;;;;3.13;1.50;;;;;;;-141.84;74.58;19163.53;4986006;28;20663;-64
2023/11/03 08:50:54;;;;;;;2.07;1.40;;;;;;;-141.84;74.25;19149.31;4985341;28;20231;-64
2023/11/03 08:53:25;;;;;;;3.27;1.40;;;;;;;-141.84;74.12;19171.66;4982144;28;20319;-63
2023/11/03 08:55:54;;;;;;;2.53;1.10;;;;;;;-141.84;74.36;19171.66;4984467;28;20223;-64
2023/11/03 08:58:22;;;;;;;4.33;1.60;;;;;;;-141.84;73.25;19143.22;4986007;28;20228;-64
2023/11/03 09:00:56;;;;;;;3.70;1.40;;;;;;;-141.84;72.77;19175.72;4984171;28;20227;-65
2023/11/03 09:03:30;;;;;;;4.93;1.30;;;;;;;-141.84;71.49;19216.38;4986529;28;20218;-63
2023/11/03 09:06:00;;;;;;;3.47;1.60;;;;;;;-141.84;72.77;19185.88;4985162;28;20322;-64
2023/11/03 09:08:30;;;;;;;4.50;1.57;;;;;;;-141.84;71.80;19212.31;4985456;28;20285;-64
2023/11/03 09:10:59;;;;;;;4.77;1.37;;;;;;;-141.84;74.26;19238.72;4977749;28;20821;-64
2023/11/03 09:13:28;;;;;;;3.00;1.40;;;;;;;-141.84;71.12;19234.66;4985976;28;20615;-64
2023/11/03 09:15:57;;;;;;;3.23;1.20;;;;;;;-141.84;70.39;19244.81;4985683;28;20235;-64
2023/11/03 09:18:27;;;;;;;4.27;1.40;;;;;;;-141.84;69.20;19273.28;4985871;28;20231;-63
2023/11/03 09:20:55;;;;;;;5.90;2.40;;;;;;;-141.84;69.12;19301.72;4984903;28;20226;-63
2023/11/03 09:23:24;;;;;;;3.23;1.40;;;;;;;-141.84;68.41;19261.06;4984464;28;20290;-64
2023/11/03 09:25:54;;;;;;;1.97;1.20;;;;;;;-141.84;69.00;19285.47;4985413;28;20285;-64
2023/11/03 09:28:22;;;;;;;2.43;1.20;;;;;;;-141.84;69.61;19254.97;4985216;28;20778;-63
2023/11/03 09:30:52;;;;;;;3.93;1.20;;;;;;;-141.84;69.10;19281.41;4981276;28;20747;-64
2023/11/03 09:33:20;;;;;;;5.13;1.60;;;;;;;-141.84;68.76;19265.13;4976860;28;20691;-64
2023/11/03 09:35:49;;;;;;;3.60;1.10;;;;;;;-141.84;68.61;19285.47;4983770;28;20754;-64
2023/11/03 09:38:19;;;;;;;2.10;1.20;;;;;;;-141.84;69.28;19240.75;4984093;28;20278;-64
2023/11/03 09:40:48;;;;;;;5.37;1.47;;;;;;;-141.84;68.72;19250.91;4982548;28;20645;-65
2023/11/03 09:43:19;;;;;;;4.47;1.03;;;;;;;-141.84;68.32;19279.38;4974762;28;20326;-62
2023/11/03 09:45:48;;;;;;;3.83;1.30;;;;;;;-141.84;68.98;19250.91;4981027;28;20215;-63
2023/11/03 09:48:19;;;;;;;4.90;1.30;;;;;;;-141.84;67.54;19287.50;4983802;28;20211;-63
2023/11/03 09:50:49;;;;;;;4.40;1.40;;;;;;;-141.84;68.75;19271.25;4983239;28;20704;-63
2023/11/03 09:53:22;;;;;;;5.50;1.40;;;;;;;-141.84;69.55;19269.22;4990737;28;20200;-63
2023/11/03 09:55:51;;;;;;;3.90;1.80;;;;;;;-141.84;69.41;19267.16;4982507;28;20239;-65
2023/11/03 09:58:21;;;;;;;4.20;1.57;;;;;;;-141.84;68.83;19259.03;4978389;28;20715;-66
2023/11/03 10:00:50;;;;;;;3.77;1.60;;;;;;;-141.84;70.87;19269.22;4984963;28;20243;-66
2023/11/03 10:03:20;;;;;;;1.73;1.43;;;;;;;-141.84;69.27;19324.06;4984510;28;20278;-66
2023/11/03 10:05:49;;;;;;;6.40;1.90;;;;;;;-141.84;68.28;19287.50;4983946;28;20223;-64
2023/11/03 10:08:19;;;;;;;5.50;1.63;;;;;;;-141.84;68.24;19301.72;4976453;28;27022;-65
2023/11/03 10:10:47;;;;;;;6.85;1.63;;;;;;;-141.84;66.21;19322.03;4983994;28;20231;-63
2023/11/03 10:13:16;;;;;;;6.40;1.83;;;;;;;-141.84;66.46;19334.22;4984875;28;20231;-64
2023/11/03 10:15:46;;;;;;;3.35;1.35;;;;;;;-141.84;66.59;19366.75;4984509;28;20883;-66
2023/11/03 10:18:14;;;;;;;3.07;1.60;;;;;;;-141.84;64.06;19372.84;4968466;28;20853;-68
2023/11/03 10:20:44;;;;;;;2.83;1.30;;;;;;;-141.84;66.41;19340.31;4985298;28;20683;-68
2023/11/03 10:23:14;;;;;;;5.00;1.73;;;;;;;-141.84;68.15;19301.72;4982486;28;20747;-65
2023/11/03 10:25:46;;;;;;;4.03;1.30;;;;;;;-141.84;68.70;19283.44;4983600;28;20255;-64
2023/11/03 10:28:15;;;;;;;3.00;1.58;;;;;;;-141.84;68.03;19317.97;4976453;28;20262;-64
2023/11/03 10:30:52;;;;;;;6.80;1.60;;;;;;;-141.84;69.36;19299.69;4983004;28;20234;-64
2023/11/03 10:33:24;;;;;;;2.33;1.47;;;;;;;-141.84;69.10;19317.97;4983604;28;20230;-64
2023/11/03 10:35:53;;;;;;;1.97;1.33;;;;;;;-141.84;69.02;19305.78;4984078;28;20217;-65
2023/11/03 10:38:23;;;;;;;4.67;1.60;;;;;;;-141.84;66.88;19344.41;4980717;28;20235;-64